Time;durP1;ratioP1;P1;durP2;ratioP2;P2;SDS_P1;SDS_P2;PMS_P1;PMS_P2;Temp;Humidity;BMP_temperature;BMP_pressure;BME280_temperature;BME280_humidity;BME280_pressure;Samples;Min_cycle;Max_cycle;Signal;HPM_P1;HPM_P2
2021/07/23 00:01:36;;;;;;;8.77;5.97;;;17.10;98.30;;;;;;5123372;23;21005;-86
2021/07/23 00:03:40;;;;;;;7.47;6.00;;;17.20;98.30;;;;;;5123239;23;20430;-87
2021/07/23 00:06:03;;;;;;;9.10;5.57;;;17.30;98.30;;;;;;5115534;23;20424;-84
2021/07/23 00:08:07;;;;;;;9.43;5.93;;;17.30;98.30;;;;;;5115769;23;20983;-85
2021/07/23 00:10:11;;;;;;;10.40;6.13;;;17.40;98.30;;;;;;5116219;23;20434;-84
2021/07/23 00:12:15;;;;;;;9.63;6.20;;;17.50;98.30;;;;;;5115859;23;20450;-85
2021/07/23 00:14:18;;;;;;;12.47;6.13;;;17.70;98.30;;;;;;5124524;23;20422;-86
2021/07/23 00:16:22;;;;;;;8.80;6.20;;;17.80;98.30;;;;;;5123794;23;20516;-85
2021/07/23 00:18:24;;;;;;;8.70;6.43;;;17.80;98.30;;;;;;5123594;23;20418;-86
2021/07/23 00:20:27;;;;;;;9.60;5.60;;;17.90;98.30;;;;;;5123765;23;20796;-86
2021/07/23 00:22:31;;;;;;;6.47;5.77;;;17.90;98.30;;;;;;5116275;23;20533;-86
2021/07/23 00:24:34;;;;;;;10.80;6.50;;;18.00;98.30;;;;;;5123091;23;20522;-86
2021/07/23 00:26:37;;;;;;;7.13;5.90;;;18.00;98.30;;;;;;5123939;23;20445;-85
2021/07/23 00:28:42;;;;;;;6.57;5.70;;;18.00;98.30;;;;;;5123574;23;20481;-86
2021/07/23 00:30:45;;;;;;;8.50;6.17;;;18.10;98.30;;;;;;5122963;23;20428;-86
2021/07/23 00:32:50;;;;;;;9.30;5.73;;;18.10;98.30;;;;;;5123288;23;20429;-86
2021/07/23 00:34:53;;;;;;;7.67;6.60;;;18.10;98.30;;;;;;5124082;23;20430;-86
2021/07/23 00:36:56;;;;;;;8.83;6.03;;;18.10;98.30;;;;;;5117157;23;20440;-85
2021/07/23 00:38:59;;;;;;;9.30;6.00;;;18.10;98.30;;;;;;5116626;23;20517;-85
2021/07/23 00:41:02;;;;;;;7.20;6.17;;;18.10;98.30;;;;;;5125511;23;20475;-85
2021/07/23 00:43:05;;;;;;;9.07;7.57;;;18.00;98.30;;;;;;5117274;23;20434;-85
2021/07/23 00:45:11;;;;;;;8.93;8.03;;;18.00;98.30;;;;;;5124565;23;20422;-85
2021/07/23 00:47:20;;;;;;;8.53;6.40;;;18.00;98.30;;;;;;5117133;23;20480;-86
2021/07/23 00:49:23;;;;;;;9.33;6.57;;;18.00;98.30;;;;;;5124930;23;20417;-85
2021/07/23 00:51:27;;;;;;;8.20;6.83;;;18.00;98.30;;;;;;5126035;23;20460;-86
2021/07/23 00:53:30;;;;;;;12.63;6.67;;;18.00;98.30;;;;;;5125161;23;20420;-86
2021/07/23 00:55:34;;;;;;;7.70;6.40;;;18.00;98.30;;;;;;5125252;23;20450;-85
2021/07/23 00:57:37;;;;;;;8.80;6.60;;;18.00;98.30;;;;;;5125811;23;20433;-85
2021/07/23 00:59:40;;;;;;;12.13;7.00;;;17.90;98.30;;;;;;5124851;23;20457;-85
2021/07/23 01:01:46;;;;;;;9.33;7.10;;;17.90;98.30;;;;;;5125591;23;20808;-85
2021/07/23 01:03:50;;;;;;;8.13;6.43;;;17.90;98.30;;;;;;5125538;23;20939;-85
2021/07/23 01:05:54;;;;;;;7.60;6.77;;;17.90;98.30;;;;;;5126485;23;20504;-86
2021/07/23 01:07:57;;;;;;;8.20;7.00;;;18.00;98.30;;;;;;5125463;23;20947;-86
2021/07/23 01:10:01;;;;;;;8.70;6.87;;;18.00;98.30;;;;;;5125277;23;20441;-86
2021/07/23 01:12:05;;;;;;;11.03;7.20;;;18.00;98.30;;;;;;5124900;23;20438;-86
2021/07/23 01:14:09;;;;;;;11.37;7.80;;;18.00;98.30;;;;;;5124661;23;20774;-84
2021/07/23 01:16:12;;;;;;;8.63;6.67;;;18.00;98.30;;;;;;5124429;23;20445;-85
2021/07/23 01:18:17;;;;;;;9.63;6.80;;;18.00;98.30;;;;;;5124472;23;20528;-86
2021/07/23 01:20:24;;;;;;;9.03;6.60;;;18.00;98.30;;;;;;5124930;23;20465;-86
2021/07/23 01:22:28;;;;;;;11.33;8.23;;;17.90;98.30;;;;;;5125728;23;20525;-86
2021/07/23 01:24:33;;;;;;;9.27;6.90;;;17.90;98.30;;;;;;5124562;23;20934;-86
2021/07/23 01:26:36;;;;;;;9.43;7.47;;;17.90;98.30;;;;;;5124971;23;20428;-86
2021/07/23 01:28:40;;;;;;;11.40;7.73;;;17.90;98.30;;;;;;5125143;23;20452;-86
2021/07/23 01:30:43;;;;;;;9.87;7.37;;;17.90;98.30;;;;;;5124890;23;20505;-86
2021/07/23 01:32:46;;;;;;;8.27;7.30;;;17.80;98.30;;;;;;5124418;23;20432;-86
2021/07/23 01:34:49;;;;;;;10.20;7.37;;;17.90;98.30;;;;;;5123607;23;20456;-86
2021/07/23 01:36:52;;;;;;;9.27;7.50;;;17.90;98.30;;;;;;5124091;23;20452;-86
2021/07/23 01:38:57;;;;;;;9.70;7.40;;;17.80;98.30;;;;;;5124949;23;20430;-86
2021/07/23 01:41:02;;;;;;;9.20;7.30;;;17.80;98.30;;;;;;5124510;23;20942;-87
2021/07/23 01:43:05;;;;;;;9.57;6.90;;;17.80;98.30;;;;;;5124367;23;20936;-86
2021/07/23 01:45:09;;;;;;;10.13;7.30;;;17.80;98.30;;;;;;5124065;23;20430;-86
2021/07/23 01:47:12;;;;;;;8.90;8.00;;;17.60;98.30;;;;;;5124350;23;20445;-86
2021/07/23 01:49:15;;;;;;;11.50;7.63;;;17.60;98.30;;;;;;5124459;23;20436;-86
2021/07/23 01:51:19;;;;;;;10.83;7.23;;;17.70;98.30;;;;;;5124678;23;21003;-86
2021/07/23 01:53:21;;;;;;;8.30;6.80;;;17.70;98.30;;;;;;5124369;23;20425;-87
2021/07/23 01:55:25;;;;;;;11.23;7.00;;;17.80;98.30;;;;;;5124381;23;20688;-86
2021/07/23 01:57:29;;;;;;;7.70;6.27;;;17.70;98.30;;;;;;5124364;23;20509;-86
2021/07/23 01:59:33;;;;;;;11.47;7.87;;;17.70;98.30;;;;;;5123813;23;20429;-86
2021/07/23 02:01:36;;;;;;;8.23;6.87;;;17.80;98.30;;;;;;5124347;23;20455;-86
2021/07/23 02:03:39;;;;;;;9.57;6.90;;;17.90;98.30;;;;;;5124779;23;20430;-86
2021/07/23 02:05:42;;;;;;;10.70;7.23;;;17.90;98.30;;;;;;5124096;23;20938;-86
2021/07/23 02:07:45;;;;;;;7.97;6.67;;;17.90;98.30;;;;;;5124058;23;20449;-86
2021/07/23 02:09:48;;;;;;;8.87;7.57;;;18.00;98.30;;;;;;5124273;23;20815;-86
2021/07/23 02:11:51;;;;;;;8.13;6.60;;;18.00;98.30;;;;;;5123965;23;20532;-86
2021/07/23 02:13:56;;;;;;;8.67;7.30;;;18.00;98.30;;;;;;5124613;23;20509;-86
2021/07/23 02:15:59;;;;;;;11.50;8.00;;;17.90;98.30;;;;;;5124353;23;20520;-87
2021/07/23 02:18:02;;;;;;;8.07;6.97;;;17.90;98.30;;;;;;5123514;23;20900;-87
2021/07/23 02:20:06;;;;;;;10.43;6.50;;;17.90;98.30;;;;;;5124390;23;20520;-86
2021/07/23 02:22:09;;;;;;;10.47;7.93;;;18.00;98.30;;;;;;5124114;23;20450;-85
2021/07/23 02:24:12;;;;;;;10.00;6.63;;;17.90;98.30;;;;;;5124537;23;20436;-86
2021/07/23 02:26:19;;;;;;;8.97;7.37;;;17.90;98.30;;;;;;5116125;23;20430;-86
2021/07/23 02:28:22;;;;;;;8.30;6.80;;;18.00;98.30;;;;;;5116585;23;20548;-86
2021/07/23 02:30:26;;;;;;;9.00;7.47;;;18.00;98.30;;;;;;5124202;23;20421;-85
2021/07/23 02:32:29;;;;;;;8.70;6.73;;;18.00;98.30;;;;;;5115887;23;20458;-85
2021/07/23 02:34:32;;;;;;;10.50;6.77;;;18.10;98.30;;;;;;5115155;23;20513;-86
2021/07/23 02:36:35;;;;;;;9.13;6.90;;;18.00;98.30;;;;;;5124210;23;20441;-86
2021/07/23 02:38:38;;;;;;;11.47;6.93;;;18.00;98.30;;;;;;5125813;23;20520;-86
2021/07/23 02:40:41;;;;;;;10.10;6.40;;;18.00;98.30;;;;;;5124985;23;20741;-86
2021/07/23 02:42:44;;;;;;;7.50;6.73;;;18.00;98.30;;;;;;5123928;23;20425;-86
2021/07/23 02:44:47;;;;;;;8.67;7.40;;;18.00;98.30;;;;;;5124345;23;20432;-86
2021/07/23 02:46:52;;;;;;;10.57;7.87;;;18.10;98.30;;;;;;5125190;23;20505;-86
2021/07/23 02:48:55;;;;;;;8.30;6.80;;;18.10;98.30;;;;;;5124835;23;20422;-85
2021/07/23 02:50:58;;;;;;;10.73;6.77;;;18.10;98.30;;;;;;5124838;23;20446;-85
2021/07/23 02:53:04;;;;;;;11.00;7.53;;;18.00;98.30;;;;;;5116086;23;20710;-84
2021/07/23 08:47:19;;;;;;;6.63;5.13;;;19.60;98.30;;;;;;5100485;23;20431;-85
2021/07/23 09:03:07;;;;;;;7.10;6.40;;;20.30;98.30;;;;;;4995448;23;20466;-86
2021/07/23 09:05:18;;;;;;;7.67;5.40;;;20.30;98.30;;;;;;5003032;23;20979;-84
2021/07/23 09:07:31;;;;;;;7.53;5.33;;;20.20;98.30;;;;;;5089932;23;20429;-83
2021/07/23 09:09:34;;;;;;;9.37;5.27;;;20.00;98.30;;;;;;5102114;23;20429;-85
2021/07/23 09:11:38;;;;;;;7.53;5.60;;;20.00;98.30;;;;;;5102216;23;20477;-85
2021/07/23 09:13:41;;;;;;;6.10;5.17;;;20.00;98.30;;;;;;5101749;23;20466;-84
2021/07/23 09:15:45;;;;;;;6.93;5.90;;;20.20;98.30;;;;;;5102532;23;20426;-86
2021/07/23 09:17:47;;;;;;;6.80;4.97;;;20.30;98.30;;;;;;5095517;23;21043;-83
2021/07/23 09:20:02;;;;;;;6.67;5.53;;;20.50;98.30;;;;;;5103839;23;20522;-84
2021/07/23 09:22:07;;;;;;;8.80;5.87;;;20.50;98.30;;;;;;5105024;23;20408;-85
2021/07/23 09:24:10;;;;;;;8.00;5.70;;;20.40;98.30;;;;;;5108472;23;20450;-82
2021/07/23 12:29:03;;;;;;;10.30;5.87;;;22.30;98.30;;;;;;4885418;24;20924;-85
2021/07/23 12:31:21;;;;;;;7.67;5.80;;;22.30;98.20;;;;;;4875851;24;20484;-83
2021/07/23 12:33:39;;;;;;;5.90;5.30;;;22.30;98.30;;;;;;4896355;24;20465;-85
2021/07/23 12:35:43;;;;;;;6.73;4.97;;;22.10;98.30;;;;;;5000846;23;20456;-82
2021/07/23 12:38:08;;;;;;;6.00;5.20;;;22.00;98.30;;;;;;5026241;23;20955;-83
2021/07/23 12:40:13;;;;;;;7.17;5.77;;;22.00;98.30;;;;;;5024805;23;20472;-82
2021/07/23 12:42:17;;;;;;;6.40;5.20;;;22.00;98.30;;;;;;5026859;23;20422;-83
2021/07/23 12:44:21;;;;;;;7.27;5.97;;;22.00;98.30;;;;;;5018950;23;20438;-83
2021/07/23 12:46:30;;;;;;;5.57;5.07;;;21.90;98.30;;;;;;5026779;23;20472;-85
2021/07/23 12:48:35;;;;;;;7.07;5.40;;;22.00;98.30;;;;;;5019181;23;20976;-85
2021/07/23 12:50:43;;;;;;;6.30;5.10;;;22.10;98.30;;;;;;5091966;23;20462;-84
2021/07/23 12:52:52;;;;;;;6.80;5.33;;;22.30;98.30;;;;;;5101640;23;20472;-84
2021/07/23 12:55:08;;;;;;;8.70;5.70;;;22.30;98.10;;;;;;5101401;23;20461;-83
2021/07/23 12:57:17;;;;;;;7.60;5.40;;;22.10;98.30;;;;;;5101489;23;20943;-84
2021/07/23 12:59:25;;;;;;;6.43;5.80;;;22.00;98.30;;;;;;5093434;23;20456;-82
2021/07/23 13:01:28;;;;;;;7.10;4.90;;;22.10;98.30;;;;;;5093085;23;20440;-83
2021/07/23 13:03:31;;;;;;;5.80;5.03;;;22.10;98.30;;;;;;5101887;23;20698;-83
2021/07/23 13:05:34;;;;;;;6.83;5.80;;;22.10;98.30;;;;;;5101709;23;20451;-83
2021/07/23 13:07:38;;;;;;;5.10;4.60;;;22.00;98.30;;;;;;5093124;23;20497;-84
2021/07/23 13:09:44;;;;;;;5.60;5.00;;;21.90;98.30;;;;;;5100990;23;20493;-82
2021/07/23 13:11:49;;;;;;;5.77;5.17;;;21.80;98.30;;;;;;5093015;23;20419;-85
2021/07/23 13:13:53;;;;;;;6.70;5.30;;;21.70;98.30;;;;;;5093331;23;20435;-83
2021/07/23 13:15:56;;;;;;;6.47;5.40;;;21.70;98.30;;;;;;5093537;23;20427;-83
2021/07/23 13:17:59;;;;;;;7.97;5.47;;;21.70;98.30;;;;;;5092868;23;20450;-82
2021/07/23 13:20:03;;;;;;;6.10;4.97;;;21.80;98.30;;;;;;5092762;23;20426;-83
2021/07/23 13:22:07;;;;;;;6.43;5.77;;;21.80;98.30;;;;;;5092734;23;20442;-83
2021/07/23 13:24:10;;;;;;;5.80;5.20;;;21.70;98.30;;;;;;5101057;23;20737;-83
2021/07/23 13:26:14;;;;;;;5.00;4.40;;;21.70;98.30;;;;;;5100801;23;20453;-81
2021/07/23 13:28:18;;;;;;;5.50;5.00;;;21.80;98.30;;;;;;5092803;23;20438;-83
2021/07/23 13:30:22;;;;;;;4.70;4.30;;;21.70;98.30;;;;;;5093383;23;20800;-82
2021/07/23 13:32:25;;;;;;;4.60;4.20;;;21.80;98.30;;;;;;5089787;23;20431;-83
2021/07/23 13:34:30;;;;;;;5.30;4.77;;;21.90;98.30;;;;;;5101436;23;20429;-83
2021/07/23 13:36:42;;;;;;;4.33;3.93;;;21.90;98.30;;;;;;5092966;23;20447;-83
2021/07/23 13:39:07;;;;;;;7.30;4.30;;;21.80;98.30;;;;;;5092758;23;20485;-83
2021/07/23 13:41:15;;;;;;;5.53;4.80;;;21.80;98.30;;;;;;5093448;23;20448;-83
2021/07/23 13:43:18;;;;;;;4.80;4.30;;;22.00;98.30;;;;;;5093584;23;20415;-82
2021/07/23 13:45:23;;;;;;;11.67;9.10;;;22.00;98.20;;;;;;5101945;23;20430;-83
2021/07/23 13:47:27;;;;;;;9.87;8.37;;;21.80;98.30;;;;;;5113278;23;20461;-83
2021/07/23 13:49:30;;;;;;;8.47;7.00;;;21.80;98.30;;;;;;5126417;23;20430;-82
2021/07/23 13:51:33;;;;;;;6.07;5.47;;;21.70;98.30;;;;;;5127338;23;20883;-83
2021/07/23 13:53:36;;;;;;;5.30;4.80;;;21.90;98.30;;;;;;5126811;23;20918;-82
2021/07/23 13:55:39;;;;;;;5.33;4.40;;;21.90;98.30;;;;;;5118409;23;20929;-83
2021/07/23 13:57:42;;;;;;;5.40;4.50;;;22.00;98.30;;;;;;5126526;23;20477;-82
2021/07/23 13:59:50;;;;;;;6.10;4.97;;;22.10;98.30;;;;;;5118473;23;20413;-83
2021/07/23 14:01:55;;;;;;;6.13;5.50;;;22.10;97.50;;;;;;5126372;23;20504;-83
2021/07/23 14:03:59;;;;;;;6.23;4.53;;;21.90;97.50;;;;;;5126063;23;20490;-83
2021/07/23 14:06:02;;;;;;;5.73;5.20;;;21.70;98.00;;;;;;5118437;23;20495;-83
2021/07/23 14:08:05;;;;;;;5.67;4.13;;;21.70;98.30;;;;;;5126116;23;20432;-83
2021/07/23 14:10:13;;;;;;;5.30;4.80;;;21.60;98.30;;;;;;5126422;23;20426;-83
2021/07/23 14:12:16;;;;;;;5.97;5.37;;;21.60;98.30;;;;;;5117022;23;20879;-83
2021/07/23 14:14:19;;;;;;;7.03;6.33;;;21.70;98.30;;;;;;5126242;23;20432;-83
2021/07/23 14:16:23;;;;;;;8.43;7.20;;;21.60;98.30;;;;;;5118295;23;20477;-83
2021/07/23 14:18:27;;;;;;;8.93;7.27;;;21.70;98.30;;;;;;5117939;23;20449;-82
2021/07/23 14:20:30;;;;;;;9.17;6.77;;;21.90;98.30;;;;;;5126173;23;20422;-85
2021/07/23 14:22:33;;;;;;;9.87;8.23;;;21.80;98.30;;;;;;5125567;23;20566;-85
2021/07/23 14:24:36;;;;;;;9.97;8.10;;;21.70;98.30;;;;;;5126314;23;20422;-82
2021/07/23 14:26:39;;;;;;;11.57;10.37;;;21.80;98.30;;;;;;5117769;23;20493;-85
2021/07/23 14:28:42;;;;;;;21.47;19.13;;;21.80;98.30;;;;;;5125360;23;20422;-85
2021/07/23 14:30:45;;;;;;;11.60;10.40;;;21.80;98.30;;;;;;5117672;23;20911;-85
2021/07/23 14:32:50;;;;;;;5.97;5.10;;;21.80;98.30;;;;;;5126455;23;20429;-85
2021/07/23 14:34:55;;;;;;;5.53;5.03;;;21.70;98.30;;;;;;5125776;23;20419;-86
2021/07/23 14:36:58;;;;;;;7.20;6.07;;;21.60;98.30;;;;;;5117076;23;20671;-85
2021/07/23 14:39:05;;;;;;;6.87;6.17;;;21.40;98.30;;;;;;5124746;23;20438;-85
2021/07/23 14:41:08;;;;;;;6.80;6.10;;;21.40;98.30;;;;;;5125953;23;20457;-86
2021/07/23 14:43:11;;;;;;;6.23;5.60;;;21.40;98.30;;;;;;5117154;23;20448;-86
2021/07/23 14:45:14;;;;;;;6.57;5.57;;;21.40;98.30;;;;;;5125494;23;20816;-85
2021/07/23 14:47:18;;;;;;;7.10;5.40;;;21.50;98.30;;;;;;5125623;23;20453;-83
2021/07/23 14:49:25;;;;;;;8.10;6.03;;;21.60;98.30;;;;;;5121950;23;20421;-83
2021/07/23 14:51:29;;;;;;;8.37;6.77;;;21.60;98.30;;;;;;5125554;23;20922;-83
2021/07/23 14:53:32;;;;;;;15.10;10.90;;;21.60;98.30;;;;;;5118533;23;20457;-81
2021/07/23 14:55:35;;;;;;;9.37;8.40;;;21.60;98.30;;;;;;5127127;23;20432;-85
2021/07/23 14:57:38;;;;;;;11.50;8.33;;;21.60;98.30;;;;;;5117127;23;20517;-83
2021/07/23 14:59:43;;;;;;;6.90;6.20;;;21.60;98.30;;;;;;5117231;23;20556;-83
2021/07/23 15:01:46;;;;;;;7.17;6.47;;;21.70;98.30;;;;;;5126139;23;20509;-82
2021/07/23 15:03:49;;;;;;;6.83;5.70;;;21.70;98.30;;;;;;5117538;23;20437;-83
2021/07/23 15:05:52;;;;;;;6.20;5.60;;;21.60;98.30;;;;;;5117051;23;20426;-83
2021/07/23 15:07:57;;;;;;;7.80;5.63;;;21.60;98.30;;;;;;5118856;23;20464;-83
2021/07/23 15:10:00;;;;;;;6.50;5.83;;;21.70;98.30;;;;;;5139015;23;20922;-83
2021/07/23 15:12:03;;;;;;;6.27;5.67;;;21.70;98.30;;;;;;5132044;23;20464;-84
2021/07/23 15:14:08;;;;;;;5.93;5.33;;;21.60;98.30;;;;;;5139071;23;20425;-83
2021/07/23 15:16:11;;;;;;;8.47;5.57;;;21.60;98.30;;;;;;5139373;23;20446;-84
2021/07/23 15:18:16;;;;;;;5.30;4.80;;;21.60;98.30;;;;;;5129733;23;20434;-83
2021/07/23 15:20:20;;;;;;;5.37;4.70;;;21.70;98.30;;;;;;5137931;23;20456;-82
2021/07/23 15:22:24;;;;;;;5.20;4.70;;;21.60;98.30;;;;;;5132898;23;20426;-83
2021/07/23 15:24:31;;;;;;;6.33;5.53;;;21.60;98.30;;;;;;5127468;23;20930;-82
2021/07/23 15:26:35;;;;;;;6.20;5.00;;;21.50;98.30;;;;;;5119046;23;20540;-83
2021/07/23 15:28:38;;;;;;;6.00;4.93;;;21.60;98.30;;;;;;5130335;23;20426;-83
2021/07/23 15:30:43;;;;;;;5.73;5.03;;;21.60;98.30;;;;;;5128660;23;20460;-83
2021/07/23 15:32:47;;;;;;;10.77;5.47;;;21.60;98.30;;;;;;5128300;23;20426;-83
2021/07/23 15:34:53;;;;;;;6.93;6.23;;;21.50;98.30;;;;;;5120787;23;20456;-83
2021/07/23 15:36:57;;;;;;;5.83;5.10;;;21.50;98.30;;;;;;5127448;23;20449;-84
2021/07/23 15:39:00;;;;;;;6.00;5.40;;;21.50;98.30;;;;;;5117227;23;20426;-83
2021/07/23 15:41:07;;;;;;;9.43;8.53;;;21.50;98.30;;;;;;5126153;23;20484;-83
2021/07/23 15:43:11;;;;;;;7.70;6.90;;;21.40;98.30;;;;;;5117897;23;20420;-83
2021/07/23 15:45:14;;;;;;;10.73;9.60;;;21.50;98.30;;;;;;5117664;23;20831;-83
2021/07/23 15:47:17;;;;;;;8.90;7.40;;;21.50;98.30;;;;;;5116456;23;20464;-83
2021/07/23 15:49:21;;;;;;;8.80;7.87;;;21.60;98.30;;;;;;5117468;23;20461;-84
2021/07/23 15:51:24;;;;;;;6.70;5.80;;;21.60;98.30;;;;;;5125646;23;20422;-82
2021/07/23 15:53:27;;;;;;;6.30;5.60;;;21.60;98.30;;;;;;5126149;23;20449;-83
2021/07/23 15:55:30;;;;;;;5.80;5.17;;;21.50;98.30;;;;;;5117815;23;20461;-83
2021/07/23 15:57:35;;;;;;;7.70;5.63;;;21.40;98.30;;;;;;5144153;23;20434;-83
2021/07/23 15:59:38;;;;;;;6.50;5.90;;;21.30;98.30;;;;;;5138778;23;20465;-85
2021/07/23 16:01:42;;;;;;;6.83;5.60;;;21.40;98.30;;;;;;5147414;23;20414;-85
2021/07/23 16:03:45;;;;;;;8.13;4.90;;;21.40;98.30;;;;;;5147511;23;20402;-84
2021/07/23 16:05:48;;;;;;;5.73;5.13;;;21.30;98.30;;;;;;5140199;23;20477;-84
2021/07/23 16:07:51;;;;;;;7.93;5.20;;;21.30;98.30;;;;;;5140495;23;20578;-84
2021/07/23 16:09:54;;;;;;;7.63;6.93;;;21.30;98.30;;;;;;5148055;23;20429;-84
2021/07/23 16:11:57;;;;;;;7.33;5.67;;;21.40;98.30;;;;;;5148228;23;20406;-84
2021/07/23 16:14:03;;;;;;;8.73;7.87;;;21.40;98.30;;;;;;5128097;23;21288;-84
2021/07/23 16:16:19;;;;;;;12.10;10.80;;;21.20;98.30;;;;;;5126657;23;20455;-84
2021/07/23 16:18:22;;;;;;;22.27;18.63;;;21.20;98.30;;;;;;5126777;23;20475;-83
2021/07/23 16:20:25;;;;;;;8.73;7.83;;;21.00;98.30;;;;;;5126611;23;20537;-83
2021/07/23 16:22:28;;;;;;;6.33;5.73;;;21.00;98.30;;;;;;5126977;23;20430;-84
2021/07/23 16:24:31;;;;;;;5.93;5.43;;;21.10;98.30;;;;;;5118494;23;20434;-83
2021/07/23 16:26:35;;;;;;;6.03;5.30;;;21.00;98.30;;;;;;5126324;23;20452;-84
2021/07/23 16:28:38;;;;;;;7.07;6.00;;;21.00;98.30;;;;;;5117727;23;20433;-84
2021/07/23 16:30:43;;;;;;;7.23;5.73;;;21.10;98.30;;;;;;5126665;23;20425;-84
2021/07/23 16:32:48;;;;;;;6.63;5.40;;;21.10;98.30;;;;;;5126421;23;20521;-84
2021/07/23 16:34:50;;;;;;;10.17;6.80;;;21.00;98.30;;;;;;5126711;23;20457;-84
2021/07/23 16:36:53;;;;;;;6.60;5.77;;;21.00;98.30;;;;;;5126878;23;20448;-83
2021/07/23 16:38:56;;;;;;;9.43;5.47;;;21.00;98.30;;;;;;5126091;23;20457;-84
2021/07/23 16:40:59;;;;;;;6.70;5.33;;;20.90;98.30;;;;;;5126266;23;20441;-84
2021/07/23 16:43:05;;;;;;;8.40;6.00;;;20.90;98.30;;;;;;5126291;23;20425;-87
2021/07/23 16:45:09;;;;;;;7.60;6.57;;;20.80;98.30;;;;;;5126145;23;20525;-84
2021/07/23 16:47:13;;;;;;;7.87;5.57;;;20.80;98.30;;;;;;5125623;23;20457;-83
2021/07/23 16:49:17;;;;;;;7.03;5.73;;;20.90;98.30;;;;;;5117542;23;20826;-84
2021/07/23 16:51:21;;;;;;;7.00;6.10;;;20.90;98.30;;;;;;5126382;23;20422;-86
2021/07/23 16:53:24;;;;;;;7.60;6.33;;;20.90;98.30;;;;;;5126711;23;20780;-86
2021/07/23 16:55:27;;;;;;;6.77;5.90;;;20.90;98.30;;;;;;5118821;23;20787;-83
2021/07/23 16:57:30;;;;;;;8.47;7.13;;;20.90;98.30;;;;;;5118276;23;20849;-86
2021/07/23 16:59:33;;;;;;;10.70;6.77;;;20.80;98.30;;;;;;5128287;23;20505;-83
2021/07/23 17:01:37;;;;;;;10.43;6.10;;;20.90;98.30;;;;;;5127601;23;20463;-85
2021/07/23 17:03:41;;;;;;;8.50;6.50;;;20.90;98.30;;;;;;5118572;23;20429;-84
2021/07/23 17:05:44;;;;;;;8.83;6.00;;;20.90;98.30;;;;;;5127632;23;20422;-85
2021/07/23 17:07:47;;;;;;;7.57;6.13;;;20.80;98.30;;;;;;5126915;23;20500;-85
2021/07/23 17:09:50;;;;;;;7.40;6.20;;;20.80;98.30;;;;;;5117855;23;20466;-85
2021/07/23 17:11:53;;;;;;;8.17;6.00;;;20.80;98.30;;;;;;5125930;23;20828;-85
2021/07/23 17:13:57;;;;;;;8.87;6.23;;;20.70;98.30;;;;;;5127086;23;20496;-84
2021/07/23 17:16:00;;;;;;;7.33;6.53;;;20.70;98.30;;;;;;5118355;23;20430;-83
2021/07/23 17:18:03;;;;;;;8.23;6.13;;;20.60;98.30;;;;;;5126395;23;20433;-85
2021/07/23 17:20:09;;;;;;;9.23;6.50;;;20.60;98.30;;;;;;5126606;23;20529;-84
2021/07/23 17:22:11;;;;;;;9.47;6.27;;;20.60;98.30;;;;;;5126092;23;20975;-85
2021/07/23 17:26:32;;;;;;;8.60;7.13;;;20.60;98.30;;;;;;5116998;23;20551;-84
2021/07/23 17:28:35;;;;;;;8.83;6.80;;;20.60;98.30;;;;;;5125990;23;20421;-84
2021/07/23 17:30:38;;;;;;;11.10;7.13;;;20.60;98.30;;;;;;5119507;23;20425;-84
2021/07/23 17:32:41;;;;;;;9.63;6.80;;;20.60;98.30;;;;;;5119465;23;20509;-84
2021/07/23 17:34:46;;;;;;;8.17;6.43;;;20.60;98.30;;;;;;5127226;23;20517;-85
2021/07/23 17:36:50;;;;;;;9.73;7.23;;;20.60;98.30;;;;;;5127142;23;20429;-85
2021/07/23 17:38:53;;;;;;;7.80;6.43;;;20.60;98.30;;;;;;5118591;23;20428;-84
2021/07/23 17:40:56;;;;;;;7.83;6.40;;;20.50;98.30;;;;;;5128379;23;20446;-84
2021/07/23 17:42:59;;;;;;;14.07;7.23;;;20.50;98.30;;;;;;5119606;23;20454;-84
2021/07/23 17:45:18;;;;;;;9.17;7.03;;;20.50;98.30;;;;;;5126807;23;20476;-84
2021/07/23 17:47:21;;;;;;;8.80;7.63;;;20.40;98.30;;;;;;5127506;23;20453;-86
2021/07/23 17:49:24;;;;;;;10.00;7.63;;;20.30;98.30;;;;;;5128852;23;20429;-85
2021/07/23 17:51:27;;;;;;;13.90;12.17;;;20.30;98.30;;;;;;5121351;23;20802;-86
2021/07/23 17:53:35;;;;;;;13.60;12.20;;;20.30;98.30;;;;;;5123015;23;20436;-86
2021/07/23 17:55:38;;;;;;;14.27;12.20;;;20.30;98.30;;;;;;5126122;23;20889;-86
2021/07/23 17:57:43;;;;;;;15.90;11.30;;;20.30;98.30;;;;;;5117682;23;20430;-86
2021/07/23 17:59:46;;;;;;;11.10;8.10;;;20.30;98.30;;;;;;5126916;23;20414;-86
2021/07/23 18:01:49;;;;;;;11.20;8.80;;;20.40;98.30;;;;;;5127905;23;20445;-85
2021/07/23 18:03:54;;;;;;;10.23;8.73;;;20.30;98.30;;;;;;5128704;23;20763;-86
2021/07/23 18:06:00;;;;;;;9.10;7.63;;;20.30;98.30;;;;;;5117518;23;20454;-86
2021/07/23 18:08:04;;;;;;;9.60;7.10;;;20.20;98.30;;;;;;5126211;23;20425;-86
2021/07/23 18:10:09;;;;;;;9.93;7.50;;;20.20;98.30;;;;;;5125645;23;20429;-86
2021/07/23 18:12:23;;;;;;;8.83;7.37;;;20.10;98.30;;;;;;5126412;23;20435;-86
2021/07/23 18:14:26;;;;;;;8.87;7.30;;;20.10;98.30;;;;;;5118833;23;20417;-86
2021/07/23 18:16:30;;;;;;;10.33;8.53;;;20.10;98.30;;;;;;5126034;23;20429;-86
2021/07/23 18:18:33;;;;;;;8.87;7.50;;;20.10;98.30;;;;;;5117383;23;20436;-85
2021/07/23 18:20:36;;;;;;;8.10;7.30;;;20.00;98.30;;;;;;5117246;23;20434;-84
2021/07/23 18:22:40;;;;;;;7.67;6.87;;;20.00;98.30;;;;;;5125219;23;20448;-85
2021/07/23 18:24:43;;;;;;;9.70;7.13;;;20.00;98.30;;;;;;5125309;23;20442;-85
2021/07/23 18:26:47;;;;;;;10.40;7.80;;;20.00;98.30;;;;;;5125492;23;20740;-84
2021/07/23 18:28:52;;;;;;;9.97;7.93;;;20.00;98.30;;;;;;5116785;23;20434;-85
2021/07/23 18:30:55;;;;;;;12.00;8.60;;;20.00;98.30;;;;;;5126089;23;20422;-85
2021/07/23 18:32:58;;;;;;;9.80;8.27;;;19.90;98.30;;;;;;5125572;23;20977;-84
2021/07/23 18:35:01;;;;;;;12.20;8.10;;;19.90;98.30;;;;;;5125271;23;20452;-85
2021/07/23 18:37:05;;;;;;;10.53;8.13;;;19.90;98.30;;;;;;5117376;23;20429;-86
2021/07/23 18:39:15;;;;;;;10.37;7.70;;;19.90;98.30;;;;;;5124641;23;20426;-85
2021/07/23 18:41:18;;;;;;;11.33;9.07;;;19.90;98.30;;;;;;5125949;23;20926;-86
2021/07/23 18:43:23;;;;;;;8.53;7.73;;;19.80;98.30;;;;;;5126813;23;20417;-86
2021/07/23 18:45:26;;;;;;;13.63;9.20;;;19.80;98.30;;;;;;5129201;23;20452;-86
2021/07/23 18:47:29;;;;;;;32.43;25.80;;;19.80;98.30;;;;;;5128008;23;20422;-86
2021/07/23 18:49:33;;;;;;;19.50;16.50;;;19.80;98.30;;;;;;5127752;23;20430;-86
2021/07/23 18:51:38;;;;;;;16.60;12.93;;;19.80;98.30;;;;;;5126825;23;20477;-86
2021/07/23 18:53:41;;;;;;;12.50;8.60;;;19.80;98.30;;;;;;5118634;23;20421;-86
2021/07/23 18:55:45;;;;;;;9.10;6.80;;;19.70;98.30;;;;;;5125992;23;20438;-86
2021/07/23 18:57:50;;;;;;;11.63;7.87;;;19.60;98.30;;;;;;5125445;23;20490;-86
2021/07/23 18:59:55;;;;;;;10.67;7.40;;;19.60;98.30;;;;;;5118088;23;20421;-86
2021/07/23 19:02:01;;;;;;;10.70;8.00;;;19.50;98.30;;;;;;5124354;23;20453;-86
2021/07/23 19:04:27;;;;;;;12.13;7.93;;;19.50;98.30;;;;;;5123976;23;20461;-86
2021/07/23 19:06:37;;;;;;;9.67;7.80;;;19.50;98.30;;;;;;5102061;23;20521;-86
2021/07/23 19:08:43;;;;;;;8.60;7.00;;;19.50;98.30;;;;;;5124589;23;20422;-86
2021/07/23 19:10:53;;;;;;;12.27;8.50;;;19.40;98.30;;;;;;5125175;23;20911;-86
2021/07/23 19:15:20;;;;;;;11.33;9.20;;;19.50;98.30;;;;;;5113786;23;20516;-86
2021/07/23 19:17:28;;;;;;;11.17;8.63;;;19.50;98.30;;;;;;5125383;23;20406;-86
2021/07/23 19:19:48;;;;;;;11.50;9.83;;;19.50;98.30;;;;;;5125281;23;20426;-86
2021/07/23 19:21:56;;;;;;;11.37;9.13;;;19.50;98.30;;;;;;5125032;23;20476;-85
2021/07/23 19:24:26;;;;;;;9.10;7.53;;;19.50;98.30;;;;;;5124915;23;20423;-86
2021/07/23 19:27:02;;;;;;;9.57;8.47;;;19.50;98.30;;;;;;5089313;23;20927;-86
2021/07/23 19:29:31;;;;;;;17.97;13.20;;;19.40;98.30;;;;;;5124499;23;20759;-85
2021/07/23 19:31:50;;;;;;;10.90;9.40;;;19.40;98.30;;;;;;5109228;23;20425;-86
2021/07/23 19:34:12;;;;;;;12.00;10.43;;;19.30;98.30;;;;;;5112117;23;20841;-85
2021/07/23 19:36:23;;;;;;;16.50;12.60;;;19.30;98.30;;;;;;5124771;23;20452;-86
2021/07/23 19:38:55;;;;;;;15.47;11.67;;;19.30;98.30;;;;;;5124545;23;20977;-84
2021/07/23 19:41:36;;;;;;;12.90;10.47;;;19.30;98.30;;;;;;5113344;23;20433;-83
2021/07/23 19:43:59;;;;;;;14.00;11.07;;;19.30;98.30;;;;;;5125738;23;20452;-85
2021/07/23 19:46:29;;;;;;;13.43;10.20;;;19.30;98.30;;;;;;5125516;23;20446;-85
2021/07/23 19:48:42;;;;;;;12.40;9.60;;;19.20;98.30;;;;;;5124324;23;20457;-85
2021/07/23 19:50:50;;;;;;;17.13;12.20;;;19.20;98.30;;;;;;5124302;23;20425;-86
2021/07/23 19:52:56;;;;;;;14.87;11.00;;;19.30;98.30;;;;;;5116905;23;20410;-85
2021/07/23 19:54:59;;;;;;;18.73;15.00;;;19.30;98.30;;;;;;5116389;23;20450;-86
2021/07/23 19:57:05;;;;;;;17.90;14.70;;;19.30;98.30;;;;;;5125173;23;20509;-85
2021/07/23 19:59:08;;;;;;;16.63;13.13;;;19.30;98.30;;;;;;5124121;23;20445;-86
2021/07/23 20:01:14;;;;;;;16.97;13.80;;;19.20;98.30;;;;;;5124854;23;20425;-85
2021/07/23 20:03:17;;;;;;;16.13;12.53;;;19.20;98.30;;;;;;5124433;23;20456;-85